Time;durP1;ratioP1;P1;durP2;ratioP2;P2;SDS_P1;SDS_P2;PMS_P1;PMS_P2;Temp;Humidity;BMP_temperature;BMP_pressure;BME280_temperature;BME280_humidity;BME280_pressure;Samples;Min_cycle;Max_cycle;Signal;HPM_P1;HPM_P2
2022/03/19 00:00:36;;;;;;;;;;;10.80;99.90;;;;;;4963123;29;20253;-92
2022/03/19 00:03:02;;;;;;;;;;;10.80;99.90;;;;;;4964071;28;19950;-91
2022/03/19 00:05:28;;;;;;;;;;;10.80;99.90;;;;;;4963588;29;19907;-92
2022/03/19 00:07:54;;;;;;;;;;;10.80;99.90;;;;;;4947478;29;19937;-92
2022/03/19 00:10:21;;;;;;;;;;;10.70;99.90;;;;;;4962127;29;19914;-91
2022/03/19 00:12:48;;;;;;;;;;;10.70;99.90;;;;;;4948722;29;19950;-91
2022/03/19 00:15:16;;;;;;;;;;;10.60;99.90;;;;;;4962196;29;19982;-91
2022/03/19 00:17:41;;;;;;;;;;;10.60;99.90;;;;;;4948003;29;19918;-92
2022/03/19 00:20:07;;;;;;;;;;;10.60;99.90;;;;;;4947437;29;19914;-92
2022/03/19 00:22:33;;;;;;;;;;;10.60;99.90;;;;;;4962492;29;19907;-92
2022/03/19 00:24:59;;;;;;;;;;;10.60;99.90;;;;;;4961602;29;19913;-91
2022/03/19 00:27:25;;;;;;;;;;;10.60;99.90;;;;;;4961565;29;19915;-92
2022/03/19 00:29:51;;;;;;;;;;;10.50;99.90;;;;;;4962492;28;20110;-91
2022/03/19 00:32:17;;;;;;;;;;;10.50;99.90;;;;;;4961593;29;19973;-92
2022/03/19 00:34:42;;;;;;;;;;;10.50;99.90;;;;;;4946471;29;19907;-91
2022/03/19 00:37:08;;;;;;;;;;;10.50;99.90;;;;;;4962725;29;19910;-92
2022/03/19 00:39:33;;;;;;;;;;;10.50;99.90;;;;;;4961368;29;19913;-92
2022/03/19 00:41:59;;;;;;;;;;;10.40;99.90;;;;;;4961478;28;19970;-92
2022/03/19 00:44:24;;;;;;;;;;;10.40;99.90;;;;;;4962585;29;19949;-92
2022/03/19 00:46:53;;;;;;;;;;;10.40;99.90;;;;;;4947477;29;19957;-91
2022/03/19 00:49:19;;;;;;;;;;;10.40;99.90;;;;;;4962619;29;19938;-92
2022/03/19 00:51:44;;;;;;;;;;;10.40;99.90;;;;;;4960889;29;19914;-92
2022/03/19 00:54:11;;;;;;;;;;;10.40;99.90;;;;;;4963168;29;19907;-92
2022/03/19 00:56:37;;;;;;;;;;;10.40;99.90;;;;;;4962282;28;19911;-92
2022/03/19 00:59:02;;;;;;;;;;;10.40;99.90;;;;;;4963515;29;19998;-92
2022/03/19 01:01:28;;;;;;;;;;;10.40;99.90;;;;;;4947537;29;19965;-92
2022/03/19 01:03:54;;;;;;;;;;;10.40;99.90;;;;;;4947663;29;19941;-91
2022/03/19 01:06:19;;;;;;;;;;;10.30;99.90;;;;;;4962477;29;19938;-92
2022/03/19 01:08:45;;;;;;;;;;;10.30;99.90;;;;;;4962634;28;19919;-92
2022/03/19 01:11:11;;;;;;;;;;;10.30;99.90;;;;;;4947619;29;19911;-92
2022/03/19 01:13:36;;;;;;;;;;;10.30;99.90;;;;;;4962870;29;20213;-92
2022/03/19 01:16:02;;;;;;;;;;;10.30;99.90;;;;;;4949369;29;20194;-92
2022/03/19 01:18:29;;;;;;;;;;;10.20;99.90;;;;;;4961135;29;19913;-92
2022/03/19 01:20:54;;;;;;;;;;;10.20;99.90;;;;;;4961136;29;20087;-92
2022/03/19 01:23:20;;;;;;;;;;;10.20;99.90;;;;;;4961980;29;19913;-92
2022/03/19 01:25:46;;;;;;;;;;;10.20;99.90;;;;;;4946604;29;19953;-92
2022/03/19 01:28:11;;;;;;;;;;;10.20;99.90;;;;;;4961116;29;20027;-92
2022/03/19 01:30:37;;;;;;;;;;;10.20;99.90;;;;;;4958239;28;19922;-92
2022/03/19 01:33:02;;;;;;;;;;;10.10;99.90;;;;;;4951769;29;19911;-92
2022/03/19 01:35:28;;;;;;;;;;;10.10;99.90;;;;;;4953755;29;19915;-91
2022/03/19 01:37:54;;;;;;;;;;;10.10;99.90;;;;;;4938120;29;20343;-91
2022/03/19 01:40:20;;;;;;;;;;;10.10;99.90;;;;;;4936236;29;19911;-92
2022/03/19 01:42:49;;;;;;;;;;;10.10;99.90;;;;;;4952615;29;19903;-92
2022/03/19 01:45:19;;;;;;;;;;;10.00;99.90;;;;;;4950794;29;19911;-92
2022/03/19 01:47:47;;;;;;;;;;;10.00;99.90;;;;;;4936795;29;19919;-92
2022/03/19 01:50:13;;;;;;;;;;;10.00;99.90;;;;;;4951373;29;19961;-92
2022/03/19 01:52:41;;;;;;;;;;;10.00;99.90;;;;;;4937290;29;19919;-92
2022/03/19 01:55:08;;;;;;;;;;;10.00;99.90;;;;;;4951777;28;19957;-92
2022/03/19 01:57:35;;;;;;;;;;;10.00;99.90;;;;;;4951430;29;19918;-92
2022/03/19 02:00:02;;;;;;;;;;;9.90;99.90;;;;;;4951946;28;19915;-91
2022/03/19 02:02:28;;;;;;;;;;;9.90;99.90;;;;;;4950876;29;19911;-92
2022/03/19 02:04:54;;;;;;;;;;;9.80;99.90;;;;;;4951273;29;19918;-92
2022/03/19 02:07:20;;;;;;;;;;;9.80;99.90;;;;;;4951051;29;19926;-91
2022/03/19 02:09:46;;;;;;;;;;;9.80;99.90;;;;;;4951629;29;20335;-91
2022/03/19 02:12:15;;;;;;;;;;;9.90;99.90;;;;;;4951103;29;19911;-91
2022/03/19 02:14:41;;;;;;;;;;;9.90;99.90;;;;;;4951667;29;19954;-92
2022/03/19 02:17:08;;;;;;;;;;;9.90;99.90;;;;;;4951457;29;19970;-91
2022/03/19 02:19:34;;;;;;;;;;;9.90;99.90;;;;;;4950896;29;19918;-92
2022/03/19 02:21:59;;;;;;;;;;;9.90;99.90;;;;;;4950458;29;19926;-91
2022/03/19 02:27:10;;;;;;;;;;;9.80;99.90;;;;;;4936855;29;19935;-91
2022/03/19 02:29:35;;;;;;;;;;;9.80;99.90;;;;;;4936133;29;20339;-92
2022/03/19 02:32:05;;;;;;;;;;;9.80;99.90;;;;;;4935626;29;20390;-92
2022/03/19 02:34:34;;;;;;;;;;;9.80;99.90;;;;;;4951893;29;19911;-92
2022/03/19 02:37:00;;;;;;;;;;;9.70;99.90;;;;;;4951065;29;19911;-91
2022/03/19 02:39:31;;;;;;;;;;;9.70;99.90;;;;;;4953277;29;19911;-92
2022/03/19 02:41:57;;;;;;;;;;;9.70;99.90;;;;;;4950626;29;19954;-92
2022/03/19 02:44:23;;;;;;;;;;;9.70;99.90;;;;;;4951232;29;20457;-91
2022/03/19 02:46:49;;;;;;;;;;;9.70;99.90;;;;;;4951577;29;19926;-92
2022/03/19 02:49:16;;;;;;;;;;;9.70;99.90;;;;;;4950186;29;19919;-91
2022/03/19 02:51:42;;;;;;;;;;;9.70;99.90;;;;;;4951760;29;19895;-92
2022/03/19 02:54:12;;;;;;;;;;;9.70;99.90;;;;;;4935483;29;20372;-92
2022/03/19 02:56:38;;;;;;;;;;;9.60;99.90;;;;;;4950429;29;19911;-92
2022/03/19 02:59:05;;;;;;;;;;;9.60;99.90;;;;;;4936177;28;20001;-92
2022/03/19 03:01:31;;;;;;;;;;;9.70;99.90;;;;;;4950775;29;19982;-92
2022/03/19 03:03:57;;;;;;;;;;;9.60;99.90;;;;;;4950602;29;20378;-91
2022/03/19 03:06:22;;;;;;;;;;;9.60;99.90;;;;;;4952004;28;19997;-92
2022/03/19 03:08:48;;;;;;;;;;;9.60;99.90;;;;;;4955948;29;20323;-92
2022/03/19 03:11:13;;;;;;;;;;;9.60;99.90;;;;;;4954209;29;19914;-90
2022/03/19 03:13:39;;;;;;;;;;;9.60;99.90;;;;;;4955529;29;20516;-92
2022/03/19 03:16:05;;;;;;;;;;;9.60;99.90;;;;;;4955325;29;20291;-91
2022/03/19 03:18:30;;;;;;;;;;;9.60;99.90;;;;;;4953983;29;20269;-92
2022/03/19 03:20:58;;;;;;;;;;;9.50;99.90;;;;;;4955089;28;20432;-92
2022/03/19 03:23:23;;;;;;;;;;;9.50;99.90;;;;;;4955008;29;20005;-92
2022/03/19 03:25:49;;;;;;;;;;;9.50;99.90;;;;;;4953946;29;19914;-92
2022/03/19 03:28:14;;;;;;;;;;;9.50;99.90;;;;;;4940232;29;19918;-91
2022/03/19 03:30:40;;;;;;;;;;;9.50;99.90;;;;;;4953936;29;20491;-92
2022/03/19 03:33:05;;;;;;;;;;;9.50;99.90;;;;;;4953815;29;20001;-92
2022/03/19 03:35:31;;;;;;;;;;;9.50;99.90;;;;;;4953717;29;19975;-92
2022/03/19 03:37:56;;;;;;;;;;;9.50;99.90;;;;;;4938986;29;19946;-91
2022/03/19 03:40:22;;;;;;;;;;;9.50;99.90;;;;;;4953619;29;20410;-92
2022/03/19 03:42:48;;;;;;;;;;;9.40;99.90;;;;;;4953497;29;19997;-92
2022/03/19 03:45:13;;;;;;;;;;;9.40;99.90;;;;;;4954116;29;20375;-92
2022/03/19 03:47:39;;;;;;;;;;;9.40;99.90;;;;;;4938216;29;20338;-92
2022/03/19 03:50:05;;;;;;;;;;;9.40;99.90;;;;;;4939068;29;20386;-91
2022/03/19 03:52:30;;;;;;;;;;;9.40;99.90;;;;;;4954015;29;19966;-92
2022/03/19 03:54:56;;;;;;;;;;;9.30;99.90;;;;;;4953416;29;20005;-92
2022/03/19 03:57:22;;;;;;;;;;;9.30;99.90;;;;;;4939391;29;19918;-91
2022/03/19 03:59:52;;;;;;;;;;;9.30;99.90;;;;;;4953819;29;19911;-92
2022/03/19 04:02:18;;;;;;;;;;;9.30;99.90;;;;;;4953029;29;19911;-92
2022/03/19 04:04:43;;;;;;;;;;;9.20;99.90;;;;;;4953149;29;19918;-92
2022/03/19 04:07:09;;;;;;;;;;;9.20;99.90;;;;;;4938089;29;19915;-91
2022/03/19 04:09:35;;;;;;;;;;;9.20;99.90;;;;;;4936845;29;20454;-91
2022/03/19 04:12:03;;;;;;;;;;;9.20;99.90;;;;;;4952888;29;20366;-92
2022/03/19 04:14:29;;;;;;;;;;;9.30;99.90;;;;;;4953467;29;19911;-92
2022/03/19 04:16:55;;;;;;;;;;;9.20;99.90;;;;;;4938086;29;19918;-92
2022/03/19 04:19:20;;;;;;;;;;;9.20;99.90;;;;;;4938147;29;19911;-91
2022/03/19 04:21:46;;;;;;;;;;;9.20;99.90;;;;;;4953031;29;19941;-91
2022/03/19 04:24:11;;;;;;;;;;;9.10;99.90;;;;;;4939053;29;19911;-92
2022/03/19 04:26:37;;;;;;;;;;;9.10;99.90;;;;;;4952472;29;19911;-91
2022/03/19 04:29:03;;;;;;;;;;;9.10;99.90;;;;;;4952480;29;19918;-91
2022/03/19 04:31:28;;;;;;;;;;;9.10;99.90;;;;;;4938906;29;19965;-91
2022/03/19 04:33:54;;;;;;;;;;;9.10;99.90;;;;;;4952397;29;19918;-92
2022/03/19 04:36:35;;;;;;;;;;;9.10;99.90;;;;;;4952678;29;19910;-92
2022/03/19 04:39:10;;;;;;;;;;;9.10;99.90;;;;;;4952552;29;19911;-90
2022/03/19 04:41:37;;;;;;;;;;;9.00;99.90;;;;;;4937443;29;19926;-91
2022/03/19 04:44:03;;;;;;;;;;;9.00;99.90;;;;;;4952423;29;19937;-91
2022/03/19 04:46:29;;;;;;;;;;;9.00;99.90;;;;;;4951998;29;20018;-92
2022/03/19 04:48:54;;;;;;;;;;;9.00;99.90;;;;;;4953175;29;19927;-90
2022/03/19 04:51:21;;;;;;;;;;;9.00;99.90;;;;;;4938131;29;19974;-90
2022/03/19 04:53:53;;;;;;;;;;;9.00;99.90;;;;;;4952159;29;20408;-90
2022/03/19 04:56:20;;;;;;;;;;;8.90;99.90;;;;;;4937366;29;19911;-91
2022/03/19 04:58:46;;;;;;;;;;;8.90;99.90;;;;;;4953217;29;20026;-91
2022/03/19 05:01:12;;;;;;;;;;;9.00;99.90;;;;;;4952113;29;19949;-90
2022/03/19 05:03:37;;;;;;;;;;;8.90;99.90;;;;;;4937463;29;19962;-90
2022/03/19 05:06:03;;;;;;;;;;;8.90;99.90;;;;;;4952746;29;19958;-90
2022/03/19 05:08:29;;;;;;;;;;;8.80;99.90;;;;;;4951623;29;19926;-90
2022/03/19 05:11:12;;;;;;;;;;;8.80;99.90;;;;;;4952590;29;20017;-92
2022/03/19 05:13:44;;;;;;;;;;;8.80;99.90;;;;;;4939144;29;19926;-91
2022/03/19 05:16:10;;;;;;;;;;;8.80;99.90;;;;;;4944000;29;19961;-91
2022/03/19 05:18:36;;;;;;;;;;;8.80;99.90;;;;;;4957963;28;20077;-91
2022/03/19 05:21:02;;;;;;;;;;;8.80;99.90;;;;;;4950921;29;19971;-90
2022/03/19 05:23:28;;;;;;;;;;;8.70;99.90;;;;;;4949585;29;19915;-91
2022/03/19 05:25:53;;;;;;;;;;;8.70;99.90;;;;;;4949405;29;19911;-91
2022/03/19 05:28:19;;;;;;;;;;;8.60;99.90;;;;;;4953730;28;20407;-90
2022/03/19 05:30:47;;;;;;;;;;;8.60;99.90;;;;;;4938550;29;20354;-90
2022/03/19 05:33:13;;;;;;;;;;;8.60;99.90;;;;;;4938228;29;19925;-91
2022/03/19 05:35:39;;;;;;;;;;;8.60;99.90;;;;;;4951425;29;19911;-91
2022/03/19 05:38:05;;;;;;;;;;;8.60;99.90;;;;;;4950142;29;19917;-90
2022/03/19 05:40:31;;;;;;;;;;;8.50;99.90;;;;;;4949622;29;20272;-90
2022/03/19 05:42:57;;;;;;;;;;;8.50;99.90;;;;;;4935217;29;19962;-91
2022/03/19 05:45:23;;;;;;;;;;;8.50;99.90;;;;;;4949836;29;19910;-93
2022/03/19 05:47:49;;;;;;;;;;;8.50;99.90;;;;;;4954237;29;19923;-92
2022/03/19 05:50:15;;;;;;;;;;;8.50;99.90;;;;;;4944139;29;19911;-94
2022/03/19 05:52:41;;;;;;;;;;;8.50;99.90;;;;;;4959157;29;19906;-92
2022/03/19 05:55:08;;;;;;;;;;;8.50;99.90;;;;;;4940529;29;19969;-92
2022/03/19 05:57:33;;;;;;;;;;;8.40;99.90;;;;;;4956656;29;20009;-91
2022/03/19 05:59:59;;;;;;;;;;;8.50;99.90;;;;;;4953281;29;19957;-92
2022/03/19 06:02:25;;;;;;;;;;;8.50;99.90;;;;;;4950330;29;20376;-91
2022/03/19 06:04:51;;;;;;;;;;;8.40;99.90;;;;;;4949435;29;19910;-92
2022/03/19 06:07:17;;;;;;;;;;;8.30;99.90;;;;;;4949776;29;20007;-93
2022/03/19 06:09:42;;;;;;;;;;;8.30;99.90;;;;;;4950157;29;20008;-91
2022/03/19 06:12:08;;;;;;;;;;;8.30;99.90;;;;;;4949597;29;20387;-92
2022/03/19 06:14:34;;;;;;;;;;;8.40;99.90;;;;;;4934480;29;20001;-91
2022/03/19 06:16:59;;;;;;;;;;;8.40;99.90;;;;;;4949543;29;19966;-92
2022/03/19 06:19:25;;;;;;;;;;;8.30;99.90;;;;;;4949520;29;20143;-93
2022/03/19 06:21:51;;;;;;;;;;;8.30;99.90;;;;;;4934602;29;20391;-92
2022/03/19 06:24:17;;;;;;;;;;;8.30;99.90;;;;;;4949396;29;19990;-92
2022/03/19 06:26:42;;;;;;;;;;;8.30;99.90;;;;;;4949256;29;19959;-93
2022/03/19 06:29:08;;;;;;;;;;;8.30;99.90;;;;;;4949184;29;20347;-93
2022/03/19 06:31:34;;;;;;;;;;;8.20;99.90;;;;;;4949349;29;19917;-93
2022/03/19 06:33:59;;;;;;;;;;;8.20;99.90;;;;;;4949651;29;19917;-93
2022/03/19 06:39:09;;;;;;;;;;;8.20;99.90;;;;;;4934690;29;19918;-93
2022/03/19 06:41:35;;;;;;;;;;;8.30;99.90;;;;;;4949628;28;19911;-93
2022/03/19 06:44:00;;;;;;;;;;;8.30;99.90;;;;;;4950050;29;19933;-93
2022/03/19 06:46:26;;;;;;;;;;;8.30;99.90;;;;;;4949343;29;20418;-92
2022/03/19 06:48:52;;;;;;;;;;;8.30;99.90;;;;;;4949345;29;19918;-93
2022/03/19 06:51:20;;;;;;;;;;;8.30;99.90;;;;;;4949364;29;20411;-92
2022/03/19 06:53:46;;;;;;;;;;;8.40;99.90;;;;;;4949088;29;19922;-93
2022/03/19 06:56:12;;;;;;;;;;;8.40;99.90;;;;;;4949503;29;19915;-93
2022/03/19 06:58:38;;;;;;;;;;;8.50;99.90;;;;;;4948981;29;19922;-93
2022/03/19 07:01:04;;;;;;;;;;;8.50;99.90;;;;;;4949057;29;19911;-94
2022/03/19 07:03:30;;;;;;;;;;;8.50;99.90;;;;;;4933363;29;19970;-94
2022/03/19 07:05:56;;;;;;;;;;;8.60;99.90;;;;;;4948799;29;20385;-93
2022/03/19 07:08:21;;;;;;;;;;;8.60;99.90;;;;;;4948773;29;19919;-93
2022/03/19 07:10:48;;;;;;;;;;;8.60;99.90;;;;;;4949064;29;20147;-93
2022/03/19 07:13:14;;;;;;;;;;;8.60;99.90;;;;;;4948645;29;19997;-93
2022/03/19 07:15:40;;;;;;;;;;;8.60;99.90;;;;;;4934119;29;19950;-93
2022/03/19 07:18:05;;;;;;;;;;;8.80;99.90;;;;;;4948760;29;20031;-93
2022/03/19 07:20:31;;;;;;;;;;;8.80;99.90;;;;;;4949524;29;19941;-93
2022/03/19 07:23:01;;;;;;;;;;;8.90;99.90;;;;;;4948759;29;19911;-93
2022/03/19 07:25:28;;;;;;;;;;;8.90;99.90;;;;;;4948794;29;19914;-93
2022/03/19 07:27:55;;;;;;;;;;;8.90;99.90;;;;;;4948828;29;19960;-93
2022/03/19 07:30:20;;;;;;;;;;;9.00;99.90;;;;;;4948702;29;19917;-93
2022/03/19 07:32:46;;;;;;;;;;;9.10;99.90;;;;;;4948819;29;20278;-93
2022/03/19 07:35:13;;;;;;;;;;;9.10;99.90;;;;;;4948766;29;19911;-93
2022/03/19 07:37:40;;;;;;;;;;;9.20;99.90;;;;;;4949259;29;19969;-93
2022/03/19 07:40:06;;;;;;;;;;;9.10;99.90;;;;;;4948827;29;20349;-93
2022/03/19 07:42:32;;;;;;;;;;;9.20;99.90;;;;;;4948709;29;19982;-93
2022/03/19 07:44:57;;;;;;;;;;;9.20;99.90;;;;;;4948750;29;20284;-92
2022/03/19 07:47:23;;;;;;;;;;;9.30;99.90;;;;;;4947775;29;20029;-93
2022/03/19 07:49:48;;;;;;;;;;;9.30;99.90;;;;;;4948154;29;19911;-92
2022/03/19 07:52:14;;;;;;;;;;;9.50;99.90;;;;;;4949446;28;19911;-93
2022/03/19 07:54:40;;;;;;;;;;;9.50;99.90;;;;;;4951008;29;19966;-93
2022/03/19 07:57:06;;;;;;;;;;;9.60;99.90;;;;;;4950780;29;19922;-93
2022/03/19 07:59:32;;;;;;;;;;;9.50;99.90;;;;;;4951074;29;19910;-93
2022/03/19 08:01:58;;;;;;;;;;;9.70;99.90;;;;;;4951325;29;19918;-93
2022/03/19 08:04:24;;;;;;;;;;;9.80;99.90;;;;;;4951540;29;19911;-93
2022/03/19 08:06:53;;;;;;;;;;;9.90;99.90;;;;;;4936714;29;19915;-94
2022/03/19 08:09:19;;;;;;;;;;;10.00;99.90;;;;;;4958499;29;19918;-92
2022/03/19 08:11:45;;;;;;;;;;;10.10;99.90;;;;;;4959576;29;19954;-93
2022/03/19 08:14:14;;;;;;;;;;;10.10;99.90;;;;;;4950553;29;19911;-93
2022/03/19 08:16:40;;;;;;;;;;;10.20;99.90;;;;;;4951154;29;19937;-93
2022/03/19 08:19:05;;;;;;;;;;;10.20;99.90;;;;;;4936094;29;19914;-93
2022/03/19 08:21:32;;;;;;;;;;;10.30;99.90;;;;;;4950899;29;20378;-93
2022/03/19 08:23:57;;;;;;;;;;;10.40;99.90;;;;;;4950701;29;19918;-93
2022/03/19 08:26:23;;;;;;;;;;;10.50;99.90;;;;;;4950343;29;19923;-93
2022/03/19 08:28:49;;;;;;;;;;;10.60;99.90;;;;;;4950245;29;19942;-94
2022/03/19 08:31:14;;;;;;;;;;;10.70;99.90;;;;;;4950255;29;20376;-96
2022/03/19 08:33:40;;;;;;;;;;;10.80;99.90;;;;;;4950706;29;19911;-93
2022/03/19 08:36:05;;;;;;;;;;;10.90;99.90;;;;;;4935645;29;19911;-93
2022/03/19 08:41:15;;;;;;;;;;;11.20;99.90;;;;;;4936229;29;19934;-94
2022/03/19 08:43:44;;;;;;;;;;;11.30;99.90;;;;;;4950518;29;20375;-94
2022/03/19 08:46:10;;;;;;;;;;;11.40;99.90;;;;;;4852231;29;2863009;-93
2022/03/19 08:48:35;;;;;;;;;;;11.50;99.90;;;;;;4951097;29;20090;-93
2022/03/19 08:53:45;;;;;;;;;;;11.80;99.90;;;;;;4936639;29;19965;-94
2022/03/19 08:56:11;;;;;;;;;;;11.90;99.90;;;;;;4951489;29;19914;-94
2022/03/19 08:58:37;;;;;;;;;;;12.10;99.90;;;;;;4951193;29;20426;-94
2022/03/19 09:01:03;;;;;;;;;;;12.10;99.90;;;;;;4951270;29;20364;-93
2022/03/19 09:03:28;;;;;;;;;;;12.10;99.90;;;;;;4950527;28;20050;-95
2022/03/19 09:05:54;;;;;;;;;;;12.30;99.90;;;;;;4950675;29;19911;-94
2022/03/19 09:08:20;;;;;;;;;;;12.40;99.90;;;;;;4936157;29;20302;-93
2022/03/19 09:10:45;;;;;;;;;;;12.60;99.90;;;;;;4950687;29;20233;-94
2022/03/19 09:13:11;;;;;;;;;;;12.60;99.90;;;;;;4950908;29;19915;-94
2022/03/19 09:15:37;;;;;;;;;;;12.60;99.90;;;;;;4950964;29;19907;-94
2022/03/19 09:18:05;;;;;;;;;;;12.80;99.90;;;;;;4951159;29;19917;-94
2022/03/19 09:20:31;;;;;;;;;;;12.90;99.90;;;;;;4950609;29;19911;-92
2022/03/19 09:22:57;;;;;;;;;;;13.10;99.90;;;;;;4950458;29;20264;-93
2022/03/19 09:25:22;;;;;;;;;;;13.20;99.90;;;;;;4935800;29;20535;-95
2022/03/19 09:27:48;;;;;;;;;;;13.30;99.90;;;;;;4949903;29;19941;-93
2022/03/19 09:30:13;;;;;;;;;;;13.30;99.90;;;;;;4950405;29;20405;-94
2022/03/19 09:32:39;;;;;;;;;;;13.40;99.90;;;;;;4950391;29;19910;-93
2022/03/19 09:35:05;;;;;;;;;;;13.60;99.90;;;;;;4950572;29;19911;-94
2022/03/19 09:37:31;;;;;;;;;;;13.80;99.90;;;;;;4950874;29;19921;-94
2022/03/19 09:39:57;;;;;;;;;;;13.90;99.90;;;;;;4950664;29;20053;-93
2022/03/19 09:42:22;;;;;;;;;;;14.00;99.90;;;;;;4950906;29;20085;-94
2022/03/19 09:44:48;;;;;;;;;;;14.10;99.90;;;;;;4950406;29;19911;-94
2022/03/19 09:47:14;;;;;;;;;;;14.00;99.90;;;;;;4950199;29;20402;-94
2022/03/19 09:49:40;;;;;;;;;;;14.10;99.90;;;;;;4950299;29;20381;-94
2022/03/19 09:52:05;;;;;;;;;;;14.20;99.90;;;;;;4950066;29;20001;-93
2022/03/19 09:54:32;;;;;;;;;;;14.40;99.90;;;;;;4949879;29;19911;-95
2022/03/19 09:57:00;;;;;;;;;;;14.50;99.90;;;;;;4950654;29;20006;-94
2022/03/19 09:59:27;;;;;;;;;;;14.60;99.90;;;;;;4949973;29;20483;-93
2022/03/19 10:01:52;;;;;;;;;;;14.70;99.90;;;;;;4950107;29;19915;-94
2022/03/19 10:04:20;;;;;;;;;;;14.70;99.90;;;;;;4950117;29;19937;-94
2022/03/19 10:09:41;;;;;;;;;;;14.90;99.90;;;;;;4935321;29;20250;-94
2022/03/19 10:12:10;;;;;;;;;;;15.00;99.90;;;;;;4949872;29;20009;-95
2022/03/19 10:14:36;;;;;;;;;;;15.10;99.90;;;;;;4949679;28;20014;-93
2022/03/19 10:17:02;;;;;;;;;;;15.30;99.90;;;;;;4950046;29;19998;-95
2022/03/19 10:19:28;;;;;;;;;;;15.40;99.90;;;;;;4949930;29;19918;-94
2022/03/19 10:22:05;;;;;;;;;;;15.50;99.90;;;;;;4950138;29;19911;-93
2022/03/19 10:24:35;;;;;;;;;;;15.60;99.90;;;;;;4950037;29;19910;-94
2022/03/19 10:27:01;;;;;;;;;;;15.70;99.90;;;;;;4950476;29;20488;-94
2022/03/19 10:29:31;;;;;;;;;;;15.90;99.90;;;;;;4955314;29;19926;-93
2022/03/19 10:32:04;;;;;;;;;;;16.00;99.90;;;;;;4956971;29;19947;-95
2022/03/19 10:34:30;;;;;;;;;;;16.10;99.90;;;;;;4949720;29;19971;-94
2022/03/19 10:36:56;;;;;;;;;;;16.20;99.90;;;;;;4949834;29;19922;-94
2022/03/19 10:39:27;;;;;;;;;;;16.30;99.90;;;;;;4949777;29;19911;-93
2022/03/19 10:41:56;;;;;;;;;;;16.20;99.90;;;;;;4949728;29;19910;-94
2022/03/19 10:44:24;;;;;;;;;;;16.30;99.90;;;;;;4949676;29;19911;-94
2022/03/19 10:46:51;;;;;;;;;;;16.40;99.90;;;;;;4949764;29;19923;-95
2022/03/19 10:49:18;;;;;;;;;;;16.40;99.90;;;;;;4949675;29;20295;-94
2022/03/19 10:51:44;;;;;;;;;;;16.70;99.90;;;;;;4937571;29;19910;-93
2022/03/19 10:54:11;;;;;;;;;;;16.80;99.90;;;;;;4950348;29;19917;-95
2022/03/19 10:56:37;;;;;;;;;;;16.80;99.90;;;;;;4949272;29;19911;-95
2022/03/19 10:59:03;;;;;;;;;;;16.90;99.90;;;;;;4949118;29;19911;-94
2022/03/19 11:01:29;;;;;;;;;;;17.20;99.90;;;;;;4934671;29;20066;-94
2022/03/19 11:03:55;;;;;;;;;;;17.40;99.90;;;;;;4949166;29;20159;-94
2022/03/19 11:06:22;;;;;;;;;;;17.40;99.90;;;;;;4934884;29;20387;-94
2022/03/19 11:08:48;;;;;;;;;;;17.40;99.90;;;;;;4949626;29;20005;-94
2022/03/19 11:11:15;;;;;;;;;;;17.70;99.90;;;;;;4949721;29;20002;-94
2022/03/19 11:13:44;;;;;;;;;;;17.90;99.90;;;;;;4950125;29;19911;-95
2022/03/19 11:16:11;;;;;;;;;;;18.00;99.90;;;;;;4949696;29;20279;-94
2022/03/19 11:18:37;;;;;;;;;;;18.10;99.90;;;;;;4949336;29;19921;-94
2022/03/19 11:21:04;;;;;;;;;;;18.10;99.90;;;;;;4935483;29;20297;-94
2022/03/19 11:23:37;;;;;;;;;;;18.00;99.90;;;;;;4949492;29;20214;-94
2022/03/19 11:26:03;;;;;;;;;;;18.10;99.90;;;;;;4934584;29;19911;-94
2022/03/19 11:28:29;;;;;;;;;;;18.30;99.90;;;;;;4953281;29;19919;-94
2022/03/19 11:31:04;;;;;;;;;;;18.40;99.90;;;;;;4953166;29;19911;-95
2022/03/19 11:33:33;;;;;;;;;;;18.40;99.90;;;;;;4937259;29;19911;-95
2022/03/19 11:35:59;;;;;;;;;;;18.30;99.90;;;;;;4952844;29;19911;-95
2022/03/19 11:38:25;;;;;;;;;;;18.20;99.90;;;;;;4953065;29;19934;-95
2022/03/19 11:40:58;;;;;;;;;;;18.40;99.90;;;;;;4953093;29;19915;-95
2022/03/19 11:43:36;;;;;;;;;;;18.70;99.90;;;;;;4953324;29;19918;-95
2022/03/19 11:46:11;;;;;;;;;;;18.80;99.90;;;;;;4954384;29;19923;-96
2022/03/19 11:48:46;;;;;;;;;;;19.00;99.90;;;;;;4952828;29;20367;-95
2022/03/19 11:51:34;;;;;;;;;;;18.70;99.90;;;;;;4953086;29;20336;-94
2022/03/19 11:54:02;;;;;;;;;;;18.80;99.90;;;;;;4937141;29;19998;-95
2022/03/19 11:56:40;;;;;;;;;;;18.90;99.90;;;;;;4952641;29;19910;-95
2022/03/19 11:59:15;;;;;;;;;;;19.00;99.90;;;;;;4953017;29;19911;-94
2022/03/19 12:01:55;;;;;;;;;;;19.10;99.90;;;;;;4953588;29;19911;-95
2022/03/19 12:04:21;;;;;;;;;;;19.20;99.90;;;;;;4952550;29;19911;-95
2022/03/19 12:06:50;;;;;;;;;;;19.30;99.90;;;;;;4953387;29;19915;-94
2022/03/19 12:09:15;;;;;;;;;;;19.30;99.90;;;;;;4952413;29;19919;-96
2022/03/19 12:12:01;;;;;;;;;;;19.30;99.90;;;;;;4952740;29;20268;-95
2022/03/19 12:14:29;;;;;;;;;;;19.30;99.90;;;;;;4953312;29;19918;-96
2022/03/19 12:17:13;;;;;;;;;;;19.30;99.90;;;;;;4952949;29;19911;-95
2022/03/19 12:19:54;;;;;;;;;;;19.40;99.90;;;;;;4952403;29;20402;-95
2022/03/19 12:22:30;;;;;;;;;;;19.60;99.90;;;;;;4952303;29;19911;-95
2022/03/19 12:25:16;;;;;;;;;;;19.80;98.90;;;;;;4952248;29;20371;-95
2022/03/19 12:27:45;;;;;;;;;;;19.80;99.30;;;;;;4953311;29;19986;-95
2022/03/19 12:30:11;;;;;;;;;;;20.10;98.80;;;;;;4952419;29;19922;-95
2022/03/19 12:32:54;;;;;;;;;;;20.20;98.00;;;;;;4952410;29;19911;-96
2022/03/19 12:35:23;;;;;;;;;;;20.30;98.40;;;;;;4952040;29;19911;-95
2022/03/19 12:37:50;;;;;;;;;;;20.50;97.50;;;;;;4951964;28;19911;-94
2022/03/19 12:40:20;;;;;;;;;;;20.50;97.90;;;;;;4955995;29;19910;-94
2022/03/19 12:42:57;;;;;;;;;;;20.60;97.60;;;;;;4952304;29;20291;-95
2022/03/19 12:45:35;;;;;;;;;;;20.60;97.70;;;;;;4951856;29;19910;-95
2022/03/19 12:48:03;;;;;;;;;;;20.80;97.30;;;;;;4951855;29;19954;-96
2022/03/19 12:50:30;;;;;;;;;;;20.80;97.90;;;;;;4952380;29;19915;-96
2022/03/19 12:52:58;;;;;;;;;;;20.70;97.50;;;;;;4937792;29;19918;-96
2022/03/19 12:55:33;;;;;;;;;;;;;;;;;;;;;
2022/03/19 12:58:03;;;;;;;;;;;20.80;97.40;;;;;;4936146;29;19911;-96
2022/03/19 13:00:34;;;;;;;;;;;21.00;96.90;;;;;;4952201;29;19914;-96
2022/03/19 13:03:03;;;;;;;;;;;20.40;96.70;;;;;;4951505;29;20390;-96
2022/03/19 13:05:44;;;;;;;;;;;;;;;;;;;;;
2022/03/19 13:11:19;;;;;;;;;;;21.50;97.00;;;;;;4901897;29;19916;-96
2022/03/19 13:13:57;;;;;;;;;;;21.90;96.10;;;;;;4952907;29;19910;-96
2022/03/19 13:16:40;;;;;;;;;;;21.80;96.20;;;;;;4951669;29;19918;-96
2022/03/19 13:19:08;;;;;;;;;;;21.80;95.80;;;;;;4951888;29;19932;-96
2022/03/19 13:21:37;;;;;;;;;;;21.80;96.10;;;;;;4953156;29;19911;-96
2022/03/19 13:24:25;;;;;;;;;;;21.70;95.20;;;;;;4952207;29;19911;-96
2022/03/19 13:30:02;;;;;;;;;;;21.80;96.00;;;;;;4930181;29;19926;-95
2022/03/19 13:32:38;;;;;;;;;;;21.90;96.30;;;;;;4950532;29;19929;-95
2022/03/19 13:35:07;;;;;;;;;;;21.90;96.30;;;;;;4950643;29;19911;-94
2022/03/19 13:37:39;;;;;;;;;;;22.00;95.30;;;;;;4951510;29;19911;-94
2022/03/19 13:40:16;;;;;;;;;;;22.00;95.60;;;;;;4950627;29;19918;-94
2022/03/19 13:43:11;;;;;;;;;;;22.10;94.80;;;;;;4950704;29;19918;-95
2022/03/19 13:45:36;;;;;;;;;;;22.10;95.60;;;;;;4935238;29;20019;-95
2022/03/19 13:48:17;;;;;;;;;;;22.20;95.70;;;;;;4950731;29;19922;-94
2022/03/19 13:50:59;;;;;;;;;;;21.90;95.60;;;;;;4950036;28;19914;-95
2022/03/19 13:53:53;;;;;;;;;;;21.80;95.70;;;;;;4950069;29;19911;-95
2022/03/19 13:56:26;;;;;;;;;;;21.80;95.90;;;;;;4950334;29;19911;-95
2022/03/19 13:59:01;;;;;;;;;;;21.90;94.80;;;;;;4950036;29;19954;-95
2022/03/19 14:01:31;;;;;;;;;;;21.50;95.40;;;;;;4950216;29;19915;-95
2022/03/19 14:03:57;;;;;;;;;;;21.50;95.60;;;;;;4950135;29;19915;-95
2022/03/19 14:06:36;;;;;;;;;;;21.50;95.40;;;;;;4950313;29;19918;-93
2022/03/19 14:09:05;;;;;;;;;;;21.50;95.20;;;;;;4951666;29;19919;-95
2022/03/19 14:11:48;;;;;;;;;;;21.60;95.20;;;;;;4950259;29;19969;-95
2022/03/19 14:14:19;;;;;;;;;;;21.80;95.50;;;;;;4950123;29;20006;-95
2022/03/19 14:16:54;;;;;;;;;;;21.90;95.30;;;;;;4949781;29;19911;-95
2022/03/19 14:19:21;;;;;;;;;;;21.90;95.30;;;;;;4949919;29;19915;-95
2022/03/19 14:21:59;;;;;;;;;;;;;;;;;;;;;
2022/03/19 14:24:38;;;;;;;;;;;;;;;;;;;;;
2022/03/19 14:27:04;;;;;;;;;;;21.80;95.40;;;;;;4935778;29;19953;-95
2022/03/19 14:29:30;;;;;;;;;;;21.80;94.90;;;;;;4955530;29;19998;-95
2022/03/19 14:31:56;;;;;;;;;;;21.80;95.70;;;;;;4949817;29;19911;-95
2022/03/19 14:34:30;;;;;;;;;;;21.70;96.00;;;;;;4949847;29;19911;-96
2022/03/19 14:37:05;;;;;;;;;;;21.70;95.90;;;;;;4950798;29;19915;-95
2022/03/19 14:39:36;;;;;;;;;;;21.80;95.70;;;;;;4950093;29;19958;-95
2022/03/19 14:42:02;;;;;;;;;;;21.70;96.30;;;;;;4950410;29;19911;-95
2022/03/19 14:47:23;;;;;;;;;;;21.50;96.70;;;;;;4934450;29;20090;-95
2022/03/19 14:49:51;;;;;;;;;;;21.60;96.80;;;;;;4949838;29;19973;-95
2022/03/19 14:52:47;;;;;;;;;;;;;;;;;;;;;
2022/03/19 15:01:30;;;;;;;;;;;;;;;;;;;;;